Flight Track Log - Related Links

Times and Time Zones

All times are in EDT time to prevent confusion due to time zone crossing. See the N507DM flight status page for this flight to view local times or setup timezone preferences in your user account.


Time Position Orientation Groundspeed Altitude Reporting Facility
EDT Latitude Longitude Course Direction KTS MPH feet Rate Location/Type
Fri 01:05:00 PM 37.0492 -80.3846 173° South  Level Estimated
Fri 01:06:00 PM 37.0175 -80.3800 173° South  Level Estimated
Fri 01:07:00 PM 36.9858 -80.3753 173° South  Level Estimated
Fri 01:08:00 PM 36.9541 -80.3707 173° South  Level Estimated
Fri 01:09:00 PM 36.9224 -80.3661 173° South  Level Estimated
Fri 01:10:00 PM 36.8907 -80.3615 173° South  Level Estimated
Fri 01:11:00 PM 36.8590 -80.3568 173° South  Level Estimated
Fri 01:12:00 PM 36.8273 -80.3522 173° South  Level Estimated
Fri 01:13:00 PM 36.7956 -80.3476 173° South  Level Estimated
Fri 01:14:00 PM 36.7639 -80.3430 173° South  Level Estimated
Fri 01:15:00 PM 36.7322 -80.3384 173° South  Level Estimated
Fri 01:16:00 PM 36.7005 -80.3338 173° South  Level Estimated
Fri 01:17:00 PM 36.6688 -80.3292 173° South  Level Estimated
Fri 01:18:00 PM 36.6371 -80.3247 173° South  Level Estimated
Fri 01:19:00 PM 36.6054 -80.3201 173° South  Level Estimated
Fri 01:20:00 PM 36.5737 -80.3155 173° South  Level Estimated
Fri 01:21:00 PM 36.5420 -80.3109 173° South  Level Estimated
Fri 01:22:00 PM 36.5103 -80.3063 173° South  Level Estimated
Fri 01:23:00 PM 36.4786 -80.3018 173° South  Level Estimated
Fri 01:24:00 PM 36.4469 -80.2972 173° South  Level Estimated
Fri 01:25:00 PM 36.4152 -80.2926 173° South  Level Estimated
Fri 01:26:00 PM 36.3835 -80.2881 173° South  Level Estimated
Fri 01:27:00 PM 36.3518 -80.2835 173° South  Level Estimated
Fri 01:28:00 PM 36.3201 -80.2790 173° South  Level Estimated
Fri 01:29:00 PM 36.2884 -80.2744 173° South  Level Estimated
Fri 01:30:00 PM 36.2554 -80.2697 173° South  Level Estimated
Fri 01:31:00 PM 36.2223 -80.2650 173° South  Level Estimated
Fri 01:32:00 PM 36.1893 -80.2602 173° South  Level Estimated
Fri 01:33:00 PM 36.1562 -80.2555 173° South  Level Estimated
Fri 01:34:00 PM 36.1231 -80.2508 173° South  Level Estimated
Fri 01:35:00 PM 36.0901 -80.2460 173° South  Level Estimated
Fri 01:36:00 PM 36.0570 -80.2413 173° South  Level Estimated
Fri 01:37:00 PM 36.0240 -80.2366 173° South  Level Estimated
Fri 01:38:00 PM 35.9909 -80.2319 173° South  Level Estimated
Fri 01:39:00 PM 35.9578 -80.2272 173° South  Level Estimated
Fri 01:40:00 PM 35.9248 -80.2225 173° South  Level Estimated
Fri 01:41:00 PM 35.8917 -80.2178 173° South  Level Estimated
Fri 01:42:00 PM 35.8587 -80.2131 173° South  Level Estimated
Fri 01:43:00 PM 35.8256 -80.2084 173° South  Level Estimated
Fri 01:44:00 PM 35.7925 -80.2038 173° South  Level Estimated
Fri 01:45:00 PM 35.7595 -80.1991 173° South  Level Estimated
Fri 01:46:00 PM 35.7264 -80.1944 173° South  Level Estimated
Fri 01:47:00 PM 35.6933 -80.1897 173° South  Level Estimated
Fri 01:48:00 PM 35.6603 -80.1851 173° South  Level Estimated
Fri 01:49:00 PM 35.6272 -80.1804 173° South  Level Estimated
Fri 01:50:00 PM 35.5941 -80.1757 173° South  Level Estimated
Fri 01:51:00 PM 35.5611 -80.1711 173° South  Level Estimated
Fri 01:52:00 PM 35.5280 -80.1664 173° South  Level Estimated
Fri 01:53:00 PM 35.4949 -80.1618 173° South  Level Estimated
Fri 01:54:00 PM 35.4618 -80.1571 173° South  Level Estimated
Fri 01:55:00 PM 35.4288 -80.1525 173° South  Level Estimated
Fri 01:56:00 PM 35.4167 -80.1508 173° South  Level Estimated
Fri 01:57:00 PM 35.4167 -80.1508 37° Northeast  Level Estimated
Fri 01:58:00 PM 35.4167 -80.1508 37° Northeast  Level Estimated
Fri 01:59:00 PM 35.4167 -80.1508 37° Northeast  Level Estimated
Fri 02:00:00 PM 35.4167 -80.1508 37° Northeast  Level Estimated
Fri 02:01:00 PM 35.4167 -80.1508 37° Northeast  Level Estimated
Fri 02:02:00 PM 35.4167 -80.1508 37° Northeast  Level Estimated
Fri 02:03:00 PM 35.4167 -80.1508 37° Northeast  Level Estimated
Fri 02:04:00 PM 35.4167 -80.1508 37° Northeast  Level Estimated
Fri 02:05:00 PM 35.4167 -80.1508 37° Northeast  Level Estimated
Fri 02:06:00 PM 35.4167 -80.1508 37° Northeast  Level Estimated
Fri 02:07:00 PM 35.4167 -80.1508 37° Northeast  Level Estimated
Fri 02:08:00 PM 35.4167 -80.1508 37° Northeast  Level Estimated
Fri 02:09:00 PM 35.4167 -80.1508 37° Northeast  Level Estimated
Fri 02:10:00 PM 35.4167 -80.1508 37° Northeast  Level Estimated
Fri 02:11:00 PM 35.4167 -80.1508 37° Northeast  Level Estimated
Fri 02:12:00 PM 35.4167 -80.1508 37° Northeast  Level Estimated
Fri 02:13:00 PM 35.4167 -80.1508 37° Northeast  Level Estimated
Fri 02:14:00 PM 35.4167 -80.1508 37° Northeast  Level Estimated
Fri 02:15:00 PM 35.4167 -80.1508 37° Northeast  Level Estimated
Fri 02:16:00 PM 35.4167 -80.1508 37° Northeast  Level Estimated
Fri 02:17:00 PM 35.4167 -80.1508 37° Northeast  Level Estimated
Fri 02:18:00 PM 35.4167 -80.1508 37° Northeast  Level Estimated
Fri 02:19:00 PM 35.4167 -80.1508 37° Northeast  Level Estimated
Fri 02:20:00 PM 35.4167 -80.1508 37° Northeast  Level Estimated
Fri 02:21:00 PM 35.4167 -80.1508 37° Northeast  Level Estimated
Fri 02:22:00 PM 35.4167 -80.1508 37° Northeast  Level Estimated
Fri 02:23:00 PM 35.4167 -80.1508 37° Northeast  Level Estimated
Fri 02:24:00 PM 35.4167 -80.1508 37° Northeast  Level Estimated

Login

Don't have an account? Register now (free) for customized features, flight alerts, and more!